Time;durP1;ratioP1;P1;durP2;ratioP2;P2;SDS_P1;SDS_P2;PMS_P1;PMS_P2;Temp;Humidity;BMP_temperature;BMP_pressure;BME280_temperature;BME280_humidity;BME280_pressure;Samples;Min_cycle;Max_cycle;Signal;HPM_P1;HPM_P2
2023/05/02 00:01:52;;;;;;;;;20.25;19.50;;;;;;;;6488461;46;8974;-60
2023/05/02 00:07:57;;;;;;;;;22.00;20.50;;;;;;;;6489123;39;8912;-60
2023/05/02 00:14:00;;;;;;;;;23.50;23.50;;;;;;;;6489096;39;8871;-61
2023/05/02 00:20:04;;;;;;;;;21.75;21.25;;;;;;;;6488623;46;8857;-60
2023/05/02 00:26:09;;;;;;;;;27.50;25.00;;;;;;;;6488213;46;8891;-60
2023/05/02 00:32:16;;;;;;;;;19.50;19.50;;;;;;;;6488216;31;9575;-62
2023/05/02 00:38:23;;;;;;;;;26.25;24.25;;;;;;;;6488139;39;9610;-61
2023/05/02 00:44:27;;;;;;;;;25.25;22.50;;;;;;;;6732729;36;8952;-61
2023/05/02 00:50:31;;;;;;;;;22.25;21.00;;;;;;;;6550808;36;8905;-60
2023/05/02 00:56:34;;;;;;;;;23.25;23.25;;;;;;;;6488843;39;8836;-61
2023/05/02 01:02:48;;;;;;;;;24.50;21.25;;;;;;;;6489260;39;8977;-62
2023/05/02 01:08:59;;;;;;;;;29.50;25.00;;;;;;;;6491943;31;9034;-61
2023/05/02 01:15:10;;;;;;;;;22.00;21.50;;;;;;;;6492661;39;8927;-60
2023/05/02 01:21:13;;;;;;;;;28.75;26.25;;;;;;;;6492449;39;8967;-60
2023/05/02 01:27:40;;;;;;;;;23.75;23.75;;;;;;;;6492614;39;8884;-62
2023/05/02 01:33:46;;;;;;;;;32.25;30.25;;;;;;;;6492556;46;8930;-63
2023/05/02 01:39:52;;;;;;;;;30.50;30.00;;;;;;;;6493018;39;9520;-61
2023/05/02 01:45:56;;;;;;;;;24.75;21.75;;;;;;;;6492911;39;8839;-63
2023/05/02 01:52:04;;;;;;;;;26.50;22.00;;;;;;;;6493038;39;8942;-61
2023/05/02 01:58:10;;;;;;;;;22.50;21.25;;;;;;;;6491910;39;8884;-62
2023/05/02 02:04:15;;;;;;;;;24.50;21.25;;;;;;;;6491250;31;8896;-61
2023/05/02 02:10:22;;;;;;;;;20.00;18.25;;;;;;;;6492534;39;9006;-61
2023/05/02 02:16:31;;;;;;;;;19.25;15.50;;;;;;;;6489969;39;8864;-62
2023/05/02 02:22:39;;;;;;;;;19.25;17.75;;;;;;;;6489640;39;8907;-60
2023/05/02 02:28:42;;;;;;;;;19.50;18.00;;;;;;;;6490510;39;9559;-61
2023/05/02 02:34:46;;;;;;;;;20.75;16.75;;;;;;;;6490056;39;8959;-61
2023/05/02 02:41:06;;;;;;;;;19.25;18.25;;;;;;;;6490938;39;8962;-62
2023/05/02 02:47:23;;;;;;;;;21.00;21.00;;;;;;;;6489520;39;9009;-61
2023/05/02 02:53:33;;;;;;;;;22.75;21.50;;;;;;;;6489616;46;8903;-61
2023/05/02 02:59:44;;;;;;;;;17.00;17.00;;;;;;;;6489251;39;9022;-62
2023/05/02 03:05:51;;;;;;;;;17.25;14.00;;;;;;;;6489926;46;8939;-61
2023/05/02 03:11:58;;;;;;;;;19.50;16.75;;;;;;;;6488155;39;8934;-60
2023/05/02 03:18:01;;;;;;;;;16.50;16.25;;;;;;;;6488480;46;8868;-61
2023/05/02 03:24:05;;;;;;;;;11.50;11.50;;;;;;;;6490273;39;8871;-61
2023/05/02 03:30:09;;;;;;;;;18.00;15.25;;;;;;;;6488297;39;8875;-60
2023/05/02 03:36:12;;;;;;;;;15.50;15.50;;;;;;;;6488827;31;9066;-61
2023/05/02 03:42:16;;;;;;;;;21.00;17.50;;;;;;;;6488200;39;8916;-61
2023/05/02 03:48:19;;;;;;;;;15.50;14.50;;;;;;;;6488943;39;8960;-61
2023/05/02 03:54:23;;;;;;;;;18.25;15.00;;;;;;;;6488937;39;8856;-61
2023/05/02 04:07:18;;;;;;;;;21.00;17.50;;;;;;;;6481065;39;9056;-60
